sensor_id;sensor_type;location;lat;lon;timestamp;P1;durP1;ratioP1;P2;durP2;ratioP2
20669;SDS011;10494;50.868;4.180;2023-08-12T00:01:41;12.30;;;5.80;;
20669;SDS011;10494;50.868;4.180;2023-08-12T00:04:07;14.15;;;6.13;;
20669;SDS011;10494;50.868;4.180;2023-08-12T00:06:32;14.18;;;6.03;;
20669;SDS011;10494;50.868;4.180;2023-08-12T00:08:58;12.82;;;5.70;;
20669;SDS011;10494;50.868;4.180;2023-08-12T00:11:24;12.98;;;5.05;;
20669;SDS011;10494;50.868;4.180;2023-08-12T00:13:49;12.68;;;5.55;;
20669;SDS011;10494;50.868;4.180;2023-08-12T00:16:15;17.92;;;5.95;;
20669;SDS011;10494;50.868;4.180;2023-08-12T00:18:41;13.73;;;6.10;;
20669;SDS011;10494;50.868;4.180;2023-08-12T00:21:08;12.27;;;5.30;;
20669;SDS011;10494;50.868;4.180;2023-08-12T00:23:39;13.75;;;5.10;;
20669;SDS011;10494;50.868;4.180;2023-08-12T00:26:06;10.63;;;5.10;;
20669;SDS011;10494;50.868;4.180;2023-08-12T00:28:32;11.48;;;5.15;;
20669;SDS011;10494;50.868;4.180;2023-08-12T00:30:58;15.27;;;5.97;;
20669;SDS011;10494;50.868;4.180;2023-08-12T00:33:24;11.30;;;5.35;;
20669;SDS011;10494;50.868;4.180;2023-08-12T00:35:49;10.10;;;5.13;;
20669;SDS011;10494;50.868;4.180;2023-08-12T00:38:15;13.77;;;5.10;;
20669;SDS011;10494;50.868;4.180;2023-08-12T00:40:41;12.65;;;5.93;;
20669;SDS011;10494;50.868;4.180;2023-08-12T00:43:06;11.93;;;5.82;;
20669;SDS011;10494;50.868;4.180;2023-08-12T00:45:34;11.98;;;5.90;;
20669;SDS011;10494;50.868;4.180;2023-08-12T00:48:00;18.92;;;6.85;;
20669;SDS011;10494;50.868;4.180;2023-08-12T00:50:26;13.20;;;5.68;;
20669;SDS011;10494;50.868;4.180;2023-08-12T00:52:53;12.50;;;5.72;;
20669;SDS011;10494;50.868;4.180;2023-08-12T00:55:19;12.75;;;5.53;;
20669;SDS011;10494;50.868;4.180;2023-08-12T00:57:45;13.45;;;6.10;;
20669;SDS011;10494;50.868;4.180;2023-08-12T01:00:11;14.88;;;6.88;;
20669;SDS011;10494;50.868;4.180;2023-08-12T01:02:37;20.95;;;7.00;;
20669;SDS011;10494;50.868;4.180;2023-08-12T01:05:03;18.35;;;7.18;;
20669;SDS011;10494;50.868;4.180;2023-08-12T01:07:30;12.73;;;6.18;;
20669;SDS011;10494;50.868;4.180;2023-08-12T01:09:56;17.15;;;6.75;;
20669;SDS011;10494;50.868;4.180;2023-08-12T01:15:24;14.23;;;7.30;;
20669;SDS011;10494;50.868;4.180;2023-08-12T01:17:51;15.48;;;6.55;;
20669;SDS011;10494;50.868;4.180;2023-08-12T01:20:19;16.38;;;7.28;;
20669;SDS011;10494;50.868;4.180;2023-08-12T01:22:52;13.38;;;7.45;;
20669;SDS011;10494;50.868;4.180;2023-08-12T01:25:32;17.05;;;6.78;;
20669;SDS011;10494;50.868;4.180;2023-08-12T01:27:58;13.25;;;6.50;;
20669;SDS011;10494;50.868;4.180;2023-08-12T01:30:23;16.58;;;7.63;;
20669;SDS011;10494;50.868;4.180;2023-08-12T01:33:00;13.27;;;7.35;;
20669;SDS011;10494;50.868;4.180;2023-08-12T01:35:33;12.75;;;7.20;;
20669;SDS011;10494;50.868;4.180;2023-08-12T01:38:04;18.27;;;7.32;;
20669;SDS011;10494;50.868;4.180;2023-08-12T01:40:31;16.35;;;7.32;;
20669;SDS011;10494;50.868;4.180;2023-08-12T01:42:58;18.90;;;6.82;;
20669;SDS011;10494;50.868;4.180;2023-08-12T01:45:24;16.13;;;7.03;;
20669;SDS011;10494;50.868;4.180;2023-08-12T01:47:50;18.63;;;7.63;;
20669;SDS011;10494;50.868;4.180;2023-08-12T01:50:16;19.02;;;7.82;;
20669;SDS011;10494;50.868;4.180;2023-08-12T01:52:42;14.50;;;7.32;;
20669;SDS011;10494;50.868;4.180;2023-08-12T01:55:08;18.00;;;7.50;;
20669;SDS011;10494;50.868;4.180;2023-08-12T01:57:33;15.52;;;7.25;;
20669;SDS011;10494;50.868;4.180;2023-08-12T02:00:00;15.70;;;7.22;;
20669;SDS011;10494;50.868;4.180;2023-08-12T02:02:26;21.50;;;7.07;;
20669;SDS011;10494;50.868;4.180;2023-08-12T02:04:52;12.93;;;7.40;;
20669;SDS011;10494;50.868;4.180;2023-08-12T02:07:18;15.00;;;7.30;;
20669;SDS011;10494;50.868;4.180;2023-08-12T02:09:43;15.68;;;7.82;;
20669;SDS011;10494;50.868;4.180;2023-08-12T02:12:09;20.08;;;7.70;;
20669;SDS011;10494;50.868;4.180;2023-08-12T02:14:34;15.52;;;6.50;;
20669;SDS011;10494;50.868;4.180;2023-08-12T02:17:01;17.30;;;8.00;;
20669;SDS011;10494;50.868;4.180;2023-08-12T02:19:30;18.75;;;7.47;;
20669;SDS011;10494;50.868;4.180;2023-08-12T02:21:57;14.63;;;8.07;;
20669;SDS011;10494;50.868;4.180;2023-08-12T02:24:23;16.60;;;7.82;;
20669;SDS011;10494;50.868;4.180;2023-08-12T02:26:49;18.58;;;8.20;;
20669;SDS011;10494;50.868;4.180;2023-08-12T02:29:14;15.13;;;7.80;;
20669;SDS011;10494;50.868;4.180;2023-08-12T02:31:40;13.70;;;7.28;;
20669;SDS011;10494;50.868;4.180;2023-08-12T02:34:06;12.18;;;7.75;;
20669;SDS011;10494;50.868;4.180;2023-08-12T02:36:32;17.52;;;8.75;;
20669;SDS011;10494;50.868;4.180;2023-08-12T02:38:57;16.48;;;7.47;;
20669;SDS011;10494;50.868;4.180;2023-08-12T02:41:23;17.40;;;8.25;;
20669;SDS011;10494;50.868;4.180;2023-08-12T02:43:49;17.48;;;8.70;;
20669;SDS011;10494;50.868;4.180;2023-08-12T02:46:14;16.13;;;9.65;;
20669;SDS011;10494;50.868;4.180;2023-08-12T02:48:40;16.15;;;8.85;;
20669;SDS011;10494;50.868;4.180;2023-08-12T02:51:06;16.92;;;8.63;;
20669;SDS011;10494;50.868;4.180;2023-08-12T02:53:32;12.20;;;6.18;;
20669;SDS011;10494;50.868;4.180;2023-08-12T02:55:58;13.00;;;6.68;;
20669;SDS011;10494;50.868;4.180;2023-08-12T02:58:23;13.75;;;6.22;;
20669;SDS011;10494;50.868;4.180;2023-08-12T03:00:49;15.90;;;5.57;;
20669;SDS011;10494;50.868;4.180;2023-08-12T03:03:14;12.18;;;5.75;;
20669;SDS011;10494;50.868;4.180;2023-08-12T03:05:40;13.15;;;6.15;;
20669;SDS011;10494;50.868;4.180;2023-08-12T03:08:06;13.95;;;6.28;;
20669;SDS011;10494;50.868;4.180;2023-08-12T03:10:33;14.27;;;6.22;;
20669;SDS011;10494;50.868;4.180;2023-08-12T03:12:59;14.52;;;6.78;;
20669;SDS011;10494;50.868;4.180;2023-08-12T03:15:25;15.25;;;6.60;;
20669;SDS011;10494;50.868;4.180;2023-08-12T03:17:50;16.30;;;7.53;;
20669;SDS011;10494;50.868;4.180;2023-08-12T03:20:16;16.95;;;7.18;;
20669;SDS011;10494;50.868;4.180;2023-08-12T03:22:41;17.15;;;7.00;;
20669;SDS011;10494;50.868;4.180;2023-08-12T03:25:07;14.18;;;7.28;;
20669;SDS011;10494;50.868;4.180;2023-08-12T03:27:33;13.32;;;7.05;;
20669;SDS011;10494;50.868;4.180;2023-08-12T03:29:59;16.00;;;7.43;;
20669;SDS011;10494;50.868;4.180;2023-08-12T03:32:25;16.25;;;7.10;;
20669;SDS011;10494;50.868;4.180;2023-08-12T03:34:51;21.92;;;8.70;;
20669;SDS011;10494;50.868;4.180;2023-08-12T03:37:17;16.10;;;9.93;;
20669;SDS011;10494;50.868;4.180;2023-08-12T03:39:43;17.52;;;8.98;;
20669;SDS011;10494;50.868;4.180;2023-08-12T03:42:09;11.20;;;7.53;;
20669;SDS011;10494;50.868;4.180;2023-08-12T03:44:34;9.70;;;6.30;;
20669;SDS011;10494;50.868;4.180;2023-08-12T03:47:00;9.65;;;5.13;;
20669;SDS011;10494;50.868;4.180;2023-08-12T03:49:26;6.10;;;4.50;;
20669;SDS011;10494;50.868;4.180;2023-08-12T03:51:51;7.10;;;4.45;;
20669;SDS011;10494;50.868;4.180;2023-08-12T03:54:18;6.25;;;4.80;;
20669;SDS011;10494;50.868;4.180;2023-08-12T03:56:44;9.18;;;5.18;;
20669;SDS011;10494;50.868;4.180;2023-08-12T03:59:10;8.57;;;5.00;;
20669;SDS011;10494;50.868;4.180;2023-08-12T04:01:36;7.40;;;4.90;;
20669;SDS011;10494;50.868;4.180;2023-08-12T04:04:02;8.93;;;4.75;;
20669;SDS011;10494;50.868;4.180;2023-08-12T04:06:28;5.70;;;4.30;;
20669;SDS011;10494;50.868;4.180;2023-08-12T04:08:53;6.35;;;4.38;;
20669;SDS011;10494;50.868;4.180;2023-08-12T04:11:19;5.00;;;3.75;;
20669;SDS011;10494;50.868;4.180;2023-08-12T04:13:44;4.35;;;3.55;;
20669;SDS011;10494;50.868;4.180;2023-08-12T04:16:10;6.50;;;3.30;;
20669;SDS011;10494;50.868;4.180;2023-08-12T04:18:36;3.95;;;3.03;;
20669;SDS011;10494;50.868;4.180;2023-08-12T04:21:01;6.05;;;3.25;;
20669;SDS011;10494;50.868;4.180;2023-08-12T04:23:27;5.88;;;2.70;;
20669;SDS011;10494;50.868;4.180;2023-08-12T04:25:52;3.95;;;2.83;;
20669;SDS011;10494;50.868;4.180;2023-08-12T04:28:21;3.92;;;2.88;;
20669;SDS011;10494;50.868;4.180;2023-08-12T04:30:47;4.15;;;3.25;;
20669;SDS011;10494;50.868;4.180;2023-08-12T04:33:16;3.88;;;2.88;;
20669;SDS011;10494;50.868;4.180;2023-08-12T04:35:41;3.78;;;3.10;;
20669;SDS011;10494;50.868;4.180;2023-08-12T04:38:07;4.85;;;3.30;;
20669;SDS011;10494;50.868;4.180;2023-08-12T04:40:33;3.95;;;3.13;;
20669;SDS011;10494;50.868;4.180;2023-08-12T04:42:59;4.00;;;2.90;;
20669;SDS011;10494;50.868;4.180;2023-08-12T04:45:24;5.18;;;3.20;;
20669;SDS011;10494;50.868;4.180;2023-08-12T04:47:50;4.65;;;3.33;;
20669;SDS011;10494;50.868;4.180;2023-08-12T04:50:16;6.50;;;3.88;;
20669;SDS011;10494;50.868;4.180;2023-08-12T04:52:41;4.32;;;3.40;;
20669;SDS011;10494;50.868;4.180;2023-08-12T04:55:07;5.70;;;3.53;;
20669;SDS011;10494;50.868;4.180;2023-08-12T04:57:35;3.92;;;3.50;;
20669;SDS011;10494;50.868;4.180;2023-08-12T05:00:01;6.40;;;3.63;;
20669;SDS011;10494;50.868;4.180;2023-08-12T05:02:27;3.65;;;3.08;;
20669;SDS011;10494;50.868;4.180;2023-08-12T05:04:53;5.97;;;3.20;;
20669;SDS011;10494;50.868;4.180;2023-08-12T05:07:18;4.88;;;3.70;;
20669;SDS011;10494;50.868;4.180;2023-08-12T05:09:44;3.97;;;3.28;;
20669;SDS011;10494;50.868;4.180;2023-08-12T05:12:10;6.32;;;3.78;;
20669;SDS011;10494;50.868;4.180;2023-08-12T05:14:37;5.47;;;3.65;;
20669;SDS011;10494;50.868;4.180;2023-08-12T05:17:04;6.90;;;4.07;;
20669;SDS011;10494;50.868;4.180;2023-08-12T05:19:30;7.80;;;4.13;;
20669;SDS011;10494;50.868;4.180;2023-08-12T05:21:56;8.40;;;4.30;;
20669;SDS011;10494;50.868;4.180;2023-08-12T05:24:22;7.35;;;4.50;;
20669;SDS011;10494;50.868;4.180;2023-08-12T05:26:47;6.88;;;4.65;;
20669;SDS011;10494;50.868;4.180;2023-08-12T05:29:13;7.82;;;4.40;;
20669;SDS011;10494;50.868;4.180;2023-08-12T05:31:39;7.75;;;5.38;;
20669;SDS011;10494;50.868;4.180;2023-08-12T05:34:04;12.43;;;5.80;;
20669;SDS011;10494;50.868;4.180;2023-08-12T05:36:30;9.20;;;6.00;;
20669;SDS011;10494;50.868;4.180;2023-08-12T05:38:56;11.38;;;7.22;;
20669;SDS011;10494;50.868;4.180;2023-08-12T05:41:22;9.40;;;6.00;;
20669;SDS011;10494;50.868;4.180;2023-08-12T05:43:48;9.70;;;6.35;;
20669;SDS011;10494;50.868;4.180;2023-08-12T05:46:14;12.43;;;5.68;;
20669;SDS011;10494;50.868;4.180;2023-08-12T05:48:39;13.38;;;5.90;;
20669;SDS011;10494;50.868;4.180;2023-08-12T05:51:05;12.20;;;5.97;;
20669;SDS011;10494;50.868;4.180;2023-08-12T05:53:31;8.05;;;5.35;;
20669;SDS011;10494;50.868;4.180;2023-08-12T05:55:57;7.30;;;4.97;;
20669;SDS011;10494;50.868;4.180;2023-08-12T05:58:23;7.45;;;5.13;;
20669;SDS011;10494;50.868;4.180;2023-08-12T06:00:49;11.80;;;5.68;;
20669;SDS011;10494;50.868;4.180;2023-08-12T06:03:15;8.18;;;5.13;;
20669;SDS011;10494;50.868;4.180;2023-08-12T06:05:41;10.30;;;5.13;;
20669;SDS011;10494;50.868;4.180;2023-08-12T06:08:07;8.38;;;5.10;;
20669;SDS011;10494;50.868;4.180;2023-08-12T06:10:33;7.90;;;5.07;;
20669;SDS011;10494;50.868;4.180;2023-08-12T06:12:59;7.72;;;4.82;;
20669;SDS011;10494;50.868;4.180;2023-08-12T06:15:25;8.50;;;5.15;;
20669;SDS011;10494;50.868;4.180;2023-08-12T06:17:51;10.45;;;5.75;;
20669;SDS011;10494;50.868;4.180;2023-08-12T06:20:16;9.88;;;4.85;;
20669;SDS011;10494;50.868;4.180;2023-08-12T06:22:42;7.68;;;4.72;;
20669;SDS011;10494;50.868;4.180;2023-08-12T06:25:08;14.20;;;5.88;;
20669;SDS011;10494;50.868;4.180;2023-08-12T06:27:33;6.43;;;4.85;;
20669;SDS011;10494;50.868;4.180;2023-08-12T06:29:59;6.68;;;4.97;;
20669;SDS011;10494;50.868;4.180;2023-08-12T06:32:24;6.97;;;4.65;;
20669;SDS011;10494;50.868;4.180;2023-08-12T06:34:50;7.55;;;4.78;;
20669;SDS011;10494;50.868;4.180;2023-08-12T06:37:16;9.40;;;4.90;;
20669;SDS011;10494;50.868;4.180;2023-08-12T06:39:42;8.63;;;4.45;;
20669;SDS011;10494;50.868;4.180;2023-08-12T06:42:07;11.15;;;10.00;;
20669;SDS011;10494;50.868;4.180;2023-08-12T06:44:33;14.48;;;12.07;;
20669;SDS011;10494;50.868;4.180;2023-08-12T06:46:58;15.55;;;13.82;;
20669;SDS011;10494;50.868;4.180;2023-08-12T06:49:24;17.58;;;15.68;;
20669;SDS011;10494;50.868;4.180;2023-08-12T06:51:50;20.00;;;16.48;;
20669;SDS011;10494;50.868;4.180;2023-08-12T06:54:16;21.25;;;18.15;;
20669;SDS011;10494;50.868;4.180;2023-08-12T06:56:41;27.25;;;20.40;;
20669;SDS011;10494;50.868;4.180;2023-08-12T06:59:07;25.67;;;21.33;;
20669;SDS011;10494;50.868;4.180;2023-08-12T07:01:33;28.88;;;24.08;;
20669;SDS011;10494;50.868;4.180;2023-08-12T07:03:58;28.40;;;23.13;;
20669;SDS011;10494;50.868;4.180;2023-08-12T07:06:24;27.95;;;23.48;;
20669;SDS011;10494;50.868;4.180;2023-08-12T07:08:50;28.17;;;22.42;;
20669;SDS011;10494;50.868;4.180;2023-08-12T07:11:15;27.52;;;18.58;;
20669;SDS011;10494;50.868;4.180;2023-08-12T07:13:41;20.38;;;15.38;;
20669;SDS011;10494;50.868;4.180;2023-08-12T07:16:07;23.52;;;15.95;;
20669;SDS011;10494;50.868;4.180;2023-08-12T07:18:33;20.80;;;14.60;;
20669;SDS011;10494;50.868;4.180;2023-08-12T07:20:59;16.33;;;13.73;;
20669;SDS011;10494;50.868;4.180;2023-08-12T07:23:25;15.13;;;12.50;;
20669;SDS011;10494;50.868;4.180;2023-08-12T07:25:51;22.48;;;13.50;;
20669;SDS011;10494;50.868;4.180;2023-08-12T07:28:16;18.13;;;14.00;;
20669;SDS011;10494;50.868;4.180;2023-08-12T07:30:42;20.10;;;15.05;;
20669;SDS011;10494;50.868;4.180;2023-08-12T07:33:08;22.10;;;16.45;;
20669;SDS011;10494;50.868;4.180;2023-08-12T07:35:34;21.70;;;16.05;;
20669;SDS011;10494;50.868;4.180;2023-08-12T07:37:59;20.10;;;16.17;;
20669;SDS011;10494;50.868;4.180;2023-08-12T07:40:25;19.40;;;14.38;;
20669;SDS011;10494;50.868;4.180;2023-08-12T07:42:51;15.05;;;11.15;;
20669;SDS011;10494;50.868;4.180;2023-08-12T07:45:16;16.00;;;11.98;;
20669;SDS011;10494;50.868;4.180;2023-08-12T07:47:42;13.82;;;10.80;;
20669;SDS011;10494;50.868;4.180;2023-08-12T07:50:08;14.38;;;10.52;;
20669;SDS011;10494;50.868;4.180;2023-08-12T07:52:33;12.52;;;11.00;;
20669;SDS011;10494;50.868;4.180;2023-08-12T07:54:59;14.13;;;10.50;;
20669;SDS011;10494;50.868;4.180;2023-08-12T07:57:25;14.88;;;11.02;;
20669;SDS011;10494;50.868;4.180;2023-08-12T07:59:51;14.55;;;11.00;;
20669;SDS011;10494;50.868;4.180;2023-08-12T08:02:16;14.00;;;10.73;;
20669;SDS011;10494;50.868;4.180;2023-08-12T08:04:42;14.23;;;11.18;;
20669;SDS011;10494;50.868;4.180;2023-08-12T08:07:08;15.10;;;10.82;;
20669;SDS011;10494;50.868;4.180;2023-08-12T08:09:34;14.75;;;10.32;;
20669;SDS011;10494;50.868;4.180;2023-08-12T08:12:00;12.10;;;9.80;;
20669;SDS011;10494;50.868;4.180;2023-08-12T08:14:26;13.25;;;10.27;;
20669;SDS011;10494;50.868;4.180;2023-08-12T08:16:52;10.68;;;9.50;;
20669;SDS011;10494;50.868;4.180;2023-08-12T08:19:18;10.50;;;8.30;;
20669;SDS011;10494;50.868;4.180;2023-08-12T08:21:44;10.00;;;8.02;;
20669;SDS011;10494;50.868;4.180;2023-08-12T08:24:10;9.57;;;7.68;;
20669;SDS011;10494;50.868;4.180;2023-08-12T08:26:38;9.35;;;7.30;;
20669;SDS011;10494;50.868;4.180;2023-08-12T08:29:05;10.25;;;7.00;;
20669;SDS011;10494;50.868;4.180;2023-08-12T08:31:31;6.70;;;5.95;;
20669;SDS011;10494;50.868;4.180;2023-08-12T08:33:57;6.95;;;6.13;;
20669;SDS011;10494;50.868;4.180;2023-08-12T08:36:22;8.23;;;5.65;;
20669;SDS011;10494;50.868;4.180;2023-08-12T08:38:48;7.72;;;5.10;;
20669;SDS011;10494;50.868;4.180;2023-08-12T08:41:14;7.40;;;4.18;;
20669;SDS011;10494;50.868;4.180;2023-08-12T08:43:42;7.03;;;3.80;;
20669;SDS011;10494;50.868;4.180;2023-08-12T08:46:09;6.53;;;3.30;;
20669;SDS011;10494;50.868;4.180;2023-08-12T08:48:39;4.75;;;2.67;;
20669;SDS011;10494;50.868;4.180;2023-08-12T08:51:05;4.95;;;2.67;;
20669;SDS011;10494;50.868;4.180;2023-08-12T08:53:34;6.85;;;2.22;;
20669;SDS011;10494;50.868;4.180;2023-08-12T08:56:02;10.07;;;2.60;;
20669;SDS011;10494;50.868;4.180;2023-08-12T08:58:30;3.67;;;2.03;;
20669;SDS011;10494;50.868;4.180;2023-08-12T09:00:56;5.20;;;1.80;;
20669;SDS011;10494;50.868;4.180;2023-08-12T09:03:22;5.38;;;1.90;;
20669;SDS011;10494;50.868;4.180;2023-08-12T09:05:49;5.53;;;2.17;;
20669;SDS011;10494;50.868;4.180;2023-08-12T09:08:16;3.85;;;1.63;;
20669;SDS011;10494;50.868;4.180;2023-08-12T09:10:42;5.40;;;2.05;;
20669;SDS011;10494;50.868;4.180;2023-08-12T09:13:09;7.72;;;2.20;;
20669;SDS011;10494;50.868;4.180;2023-08-12T09:15:34;9.63;;;2.25;;
20669;SDS011;10494;50.868;4.180;2023-08-12T09:18:00;11.73;;;2.10;;
20669;SDS011;10494;50.868;4.180;2023-08-12T09:20:25;10.63;;;2.40;;
20669;SDS011;10494;50.868;4.180;2023-08-12T09:22:55;7.68;;;1.92;;
20669;SDS011;10494;50.868;4.180;2023-08-12T09:25:26;5.95;;;1.98;;
20669;SDS011;10494;50.868;4.180;2023-08-12T09:27:58;8.77;;;2.00;;
20669;SDS011;10494;50.868;4.180;2023-08-12T09:30:25;4.78;;;1.95;;
20669;SDS011;10494;50.868;4.180;2023-08-12T09:33:00;10.45;;;1.95;;
20669;SDS011;10494;50.868;4.180;2023-08-12T09:35:32;8.27;;;1.95;;
20669;SDS011;10494;50.868;4.180;2023-08-12T09:37:57;5.30;;;1.60;;
20669;SDS011;10494;50.868;4.180;2023-08-12T09:40:23;9.02;;;1.75;;
20669;SDS011;10494;50.868;4.180;2023-08-12T09:42:49;5.25;;;1.55;;
20669;SDS011;10494;50.868;4.180;2023-08-12T09:45:15;9.18;;;1.70;;
20669;SDS011;10494;50.868;4.180;2023-08-12T09:47:44;9.50;;;2.08;;
20669;SDS011;10494;50.868;4.180;2023-08-12T09:50:09;6.97;;;1.60;;
20669;SDS011;10494;50.868;4.180;2023-08-12T09:52:35;11.10;;;1.55;;
20669;SDS011;10494;50.868;4.180;2023-08-12T09:55:01;8.27;;;2.38;;
20669;SDS011;10494;50.868;4.180;2023-08-12T09:57:30;6.63;;;1.42;;
20669;SDS011;10494;50.868;4.180;2023-08-12T09:59:58;14.07;;;1.98;;
20669;SDS011;10494;50.868;4.180;2023-08-12T10:02:25;7.03;;;1.50;;
20669;SDS011;10494;50.868;4.180;2023-08-12T10:04:53;6.97;;;1.88;;
20669;SDS011;10494;50.868;4.180;2023-08-12T10:07:21;26.77;;;2.33;;
20669;SDS011;10494;50.868;4.180;2023-08-12T10:09:48;9.20;;;1.85;;
20669;SDS011;10494;50.868;4.180;2023-08-12T10:12:14;9.07;;;2.05;;
20669;SDS011;10494;50.868;4.180;2023-08-12T10:14:40;4.32;;;1.40;;
20669;SDS011;10494;50.868;4.180;2023-08-12T10:17:07;7.10;;;1.50;;
20669;SDS011;10494;50.868;4.180;2023-08-12T10:19:35;10.25;;;1.75;;
20669;SDS011;10494;50.868;4.180;2023-08-12T10:22:02;8.10;;;1.67;;
20669;SDS011;10494;50.868;4.180;2023-08-12T10:24:28;10.30;;;1.58;;
20669;SDS011;10494;50.868;4.180;2023-08-12T10:26:55;4.28;;;1.67;;
20669;SDS011;10494;50.868;4.180;2023-08-12T10:29:22;5.82;;;1.52;;
20669;SDS011;10494;50.868;4.180;2023-08-12T10:31:49;3.03;;;1.50;;
20669;SDS011;10494;50.868;4.180;2023-08-12T10:34:22;13.05;;;2.13;;
20669;SDS011;10494;50.868;4.180;2023-08-12T10:37:00;6.38;;;1.73;;
20669;SDS011;10494;50.868;4.180;2023-08-12T10:39:27;7.53;;;1.67;;
20669;SDS011;10494;50.868;4.180;2023-08-12T10:41:57;4.93;;;1.60;;
20669;SDS011;10494;50.868;4.180;2023-08-12T10:44:27;5.03;;;1.45;;
20669;SDS011;10494;50.868;4.180;2023-08-12T10:47:07;10.10;;;1.60;;
20669;SDS011;10494;50.868;4.180;2023-08-12T10:49:38;15.85;;;1.90;;
20669;SDS011;10494;50.868;4.180;2023-08-12T10:52:07;4.35;;;1.50;;
20669;SDS011;10494;50.868;4.180;2023-08-12T10:54:52;5.55;;;1.75;;
20669;SDS011;10494;50.868;4.180;2023-08-12T10:57:18;5.25;;;1.30;;
20669;SDS011;10494;50.868;4.180;2023-08-12T10:59:59;7.13;;;1.80;;
20669;SDS011;10494;50.868;4.180;2023-08-12T11:02:29;6.78;;;1.77;;
20669;SDS011;10494;50.868;4.180;2023-08-12T11:10:26;8.27;;;1.60;;
20669;SDS011;10494;50.868;4.180;2023-08-12T11:15:17;7.45;;;1.67;;
20669;SDS011;10494;50.868;4.180;2023-08-12T11:17:45;6.93;;;1.40;;
20669;SDS011;10494;50.868;4.180;2023-08-12T11:20:12;7.18;;;1.70;;
20669;SDS011;10494;50.868;4.180;2023-08-12T11:22:39;8.57;;;1.60;;
20669;SDS011;10494;50.868;4.180;2023-08-12T11:25:15;7.05;;;1.85;;
20669;SDS011;10494;50.868;4.180;2023-08-12T11:27:41;4.85;;;1.40;;
20669;SDS011;10494;50.868;4.180;2023-08-12T11:30:12;9.10;;;1.98;;
20669;SDS011;10494;50.868;4.180;2023-08-12T11:32:41;10.40;;;1.50;;
20669;SDS011;10494;50.868;4.180;2023-08-12T11:35:11;9.73;;;2.08;;
20669;SDS011;10494;50.868;4.180;2023-08-12T11:37:39;9.68;;;2.10;;
20669;SDS011;10494;50.868;4.180;2023-08-12T11:40:06;6.05;;;1.60;;
20669;SDS011;10494;50.868;4.180;2023-08-12T11:42:40;8.20;;;1.65;;
20669;SDS011;10494;50.868;4.180;2023-08-12T11:45:07;6.03;;;1.52;;
20669;SDS011;10494;50.868;4.180;2023-08-12T11:47:37;8.95;;;1.60;;
20669;SDS011;10494;50.868;4.180;2023-08-12T11:50:05;4.22;;;1.65;;
20669;SDS011;10494;50.868;4.180;2023-08-12T11:52:35;6.15;;;1.50;;
20669;SDS011;10494;50.868;4.180;2023-08-12T11:55:02;6.05;;;1.40;;
20669;SDS011;10494;50.868;4.180;2023-08-12T11:57:28;11.60;;;2.53;;
20669;SDS011;10494;50.868;4.180;2023-08-12T12:00:02;5.07;;;1.60;;
20669;SDS011;10494;50.868;4.180;2023-08-12T12:02:35;4.70;;;1.52;;
20669;SDS011;10494;50.868;4.180;2023-08-12T12:05:08;12.13;;;1.67;;
20669;SDS011;10494;50.868;4.180;2023-08-12T12:07:35;8.68;;;1.80;;
20669;SDS011;10494;50.868;4.180;2023-08-12T12:10:02;5.00;;;1.40;;
20669;SDS011;10494;50.868;4.180;2023-08-12T12:12:28;6.18;;;1.70;;
20669;SDS011;10494;50.868;4.180;2023-08-12T12:14:53;4.65;;;1.30;;
20669;SDS011;10494;50.868;4.180;2023-08-12T12:17:23;6.38;;;1.40;;
20669;SDS011;10494;50.868;4.180;2023-08-12T12:19:56;10.82;;;2.22;;
20669;SDS011;10494;50.868;4.180;2023-08-12T12:22:26;8.10;;;1.45;;
20669;SDS011;10494;50.868;4.180;2023-08-12T12:25:00;5.32;;;1.58;;
20669;SDS011;10494;50.868;4.180;2023-08-12T12:27:34;4.97;;;1.35;;
20669;SDS011;10494;50.868;4.180;2023-08-12T12:30:00;5.18;;;1.40;;
20669;SDS011;10494;50.868;4.180;2023-08-12T12:32:26;4.40;;;1.40;;
20669;SDS011;10494;50.868;4.180;2023-08-12T12:34:52;8.60;;;1.67;;
20669;SDS011;10494;50.868;4.180;2023-08-12T12:37:19;8.02;;;1.48;;
20669;SDS011;10494;50.868;4.180;2023-08-12T12:39:45;6.32;;;1.40;;
20669;SDS011;10494;50.868;4.180;2023-08-12T12:42:12;3.85;;;1.38;;
20669;SDS011;10494;50.868;4.180;2023-08-12T12:44:37;3.15;;;1.10;;
20669;SDS011;10494;50.868;4.180;2023-08-12T12:47:03;4.93;;;1.50;;
20669;SDS011;10494;50.868;4.180;2023-08-12T12:49:29;4.82;;;1.38;;
20669;SDS011;10494;50.868;4.180;2023-08-12T12:51:55;3.13;;;1.10;;
20669;SDS011;10494;50.868;4.180;2023-08-12T12:54:21;6.28;;;1.40;;
20669;SDS011;10494;50.868;4.180;2023-08-12T12:56:46;8.57;;;2.05;;
20669;SDS011;10494;50.868;4.180;2023-08-12T12:59:12;5.10;;;1.40;;
20669;SDS011;10494;50.868;4.180;2023-08-12T13:01:39;9.68;;;2.05;;
20669;SDS011;10494;50.868;4.180;2023-08-12T13:04:05;6.63;;;1.75;;
20669;SDS011;10494;50.868;4.180;2023-08-12T13:06:33;5.20;;;1.60;;
20669;SDS011;10494;50.868;4.180;2023-08-12T13:08:59;6.20;;;2.10;;
20669;SDS011;10494;50.868;4.180;2023-08-12T13:11:25;8.40;;;1.90;;
20669;SDS011;10494;50.868;4.180;2023-08-12T13:13:51;6.40;;;1.88;;
20669;SDS011;10494;50.868;4.180;2023-08-12T13:16:17;7.05;;;1.52;;
20669;SDS011;10494;50.868;4.180;2023-08-12T13:18:42;5.22;;;1.98;;
20669;SDS011;10494;50.868;4.180;2023-08-12T13:21:08;4.47;;;1.30;;
20669;SDS011;10494;50.868;4.180;2023-08-12T13:23:34;8.25;;;2.13;;
20669;SDS011;10494;50.868;4.180;2023-08-12T13:25:59;6.72;;;1.77;;
20669;SDS011;10494;50.868;4.180;2023-08-12T13:28:25;7.85;;;2.08;;
20669;SDS011;10494;50.868;4.180;2023-08-12T13:30:51;2.97;;;1.42;;
20669;SDS011;10494;50.868;4.180;2023-08-12T13:33:16;5.45;;;1.67;;
20669;SDS011;10494;50.868;4.180;2023-08-12T13:35:43;3.67;;;1.40;;
20669;SDS011;10494;50.868;4.180;2023-08-12T13:38:09;6.25;;;1.33;;
20669;SDS011;10494;50.868;4.180;2023-08-12T13:40:34;11.48;;;1.80;;
20669;SDS011;10494;50.868;4.180;2023-08-12T13:43:00;6.75;;;1.90;;
20669;SDS011;10494;50.868;4.180;2023-08-12T13:45:26;6.30;;;1.77;;
20669;SDS011;10494;50.868;4.180;2023-08-12T13:47:51;9.35;;;1.65;;
20669;SDS011;10494;50.868;4.180;2023-08-12T13:50:17;3.40;;;1.27;;
20669;SDS011;10494;50.868;4.180;2023-08-12T13:52:44;4.78;;;1.75;;
20669;SDS011;10494;50.868;4.180;2023-08-12T13:55:11;8.60;;;1.70;;
20669;SDS011;10494;50.868;4.180;2023-08-12T13:57:37;6.00;;;1.92;;
20669;SDS011;10494;50.868;4.180;2023-08-12T14:00:03;4.25;;;1.40;;
20669;SDS011;10494;50.868;4.180;2023-08-12T14:02:34;7.35;;;1.75;;
20669;SDS011;10494;50.868;4.180;2023-08-12T14:05:01;8.05;;;1.83;;
20669;SDS011;10494;50.868;4.180;2023-08-12T14:07:28;9.70;;;1.95;;
20669;SDS011;10494;50.868;4.180;2023-08-12T14:09:53;5.60;;;1.33;;
20669;SDS011;10494;50.868;4.180;2023-08-12T14:12:19;10.32;;;1.77;;
20669;SDS011;10494;50.868;4.180;2023-08-12T14:14:44;8.98;;;2.00;;
20669;SDS011;10494;50.868;4.180;2023-08-12T14:17:10;5.55;;;1.42;;
20669;SDS011;10494;50.868;4.180;2023-08-12T14:19:38;6.93;;;2.00;;
20669;SDS011;10494;50.868;4.180;2023-08-12T14:22:05;4.63;;;1.20;;
20669;SDS011;10494;50.868;4.180;2023-08-12T14:24:31;6.07;;;2.30;;
20669;SDS011;10494;50.868;4.180;2023-08-12T14:26:56;5.68;;;2.05;;
20669;SDS011;10494;50.868;4.180;2023-08-12T14:29:22;5.07;;;1.65;;
20669;SDS011;10494;50.868;4.180;2023-08-12T14:31:51;9.57;;;1.70;;
20669;SDS011;10494;50.868;4.180;2023-08-12T14:34:17;5.18;;;1.52;;
20669;SDS011;10494;50.868;4.180;2023-08-12T14:36:43;6.28;;;1.55;;
20669;SDS011;10494;50.868;4.180;2023-08-12T14:39:08;7.97;;;1.63;;
20669;SDS011;10494;50.868;4.180;2023-08-12T14:41:34;7.93;;;1.77;;
20669;SDS011;10494;50.868;4.180;2023-08-12T14:44:00;6.78;;;1.42;;
20669;SDS011;10494;50.868;4.180;2023-08-12T14:46:25;6.80;;;2.15;;
20669;SDS011;10494;50.868;4.180;2023-08-12T14:48:51;3.33;;;1.55;;